Terminal Aerodrome Forecast
Issued by NWS North Platte, NE

Home | Current Version | Previous Version | Graphics & Text | Print | Product List | Glossary On
Versions: 1 2 3 4 5 6 7 8 9 10 11 12 13 14 15 16 17 18
000
FTUS43 KLBF 161000 AAA
TAFVTN
TAF AMD
KVTN 161046Z 1611/1706 31021G27KT P6SM OVC150
      TEMPO 1611/1613 6SM -SHRA OVC024
     FM162000 34021G31KT P6SM OVC050
     FM170100 36016KT P6SM BKN050=

USA.gov is the U.S. government's official web portal to all federal, state and local government web resources and services.